sensor_id;sensor_type;location;lat;lon;timestamp;pressure;altitude;pressure_sealevel;temperature;humidity
4273;BME280;63887;53.656;9.810;2023-02-01T00:00:11;101194.94;;;4.98;85.36
4273;BME280;63887;53.656;9.810;2023-02-01T00:02:38;101188.19;;;4.91;87.68
4273;BME280;63887;53.656;9.810;2023-02-01T00:05:06;101198.09;;;4.74;88.14
4273;BME280;63887;53.656;9.810;2023-02-01T00:07:32;101194.09;;;4.61;88.07
4273;BME280;63887;53.656;9.810;2023-02-01T00:09:58;101188.19;;;4.54;89.24
4273;BME280;63887;53.656;9.810;2023-02-01T00:12:26;101186.72;;;4.42;91.09
4273;BME280;63887;53.656;9.810;2023-02-01T00:14:52;101182.50;;;4.38;91.40
4273;BME280;63887;53.656;9.810;2023-02-01T00:17:19;101178.06;;;4.42;91.02
4273;BME280;63887;53.656;9.810;2023-02-01T00:19:45;101185.63;;;4.53;90.40
4273;BME280;63887;53.656;9.810;2023-02-01T00:22:11;101169.84;;;4.60;89.06
4273;BME280;63887;53.656;9.810;2023-02-01T00:24:38;101169.16;;;4.54;88.69
4273;BME280;63887;53.656;9.810;2023-02-01T00:27:04;101160.50;;;4.53;88.43
4273;BME280;63887;53.656;9.810;2023-02-01T00:29:32;101169.00;;;4.60;88.17
4273;BME280;63887;53.656;9.810;2023-02-01T00:31:58;101175.88;;;4.62;87.81
4273;BME280;63887;53.656;9.810;2023-02-01T00:34:25;101173.97;;;4.69;87.29
4273;BME280;63887;53.656;9.810;2023-02-01T00:36:51;101162.50;;;4.79;87.22
4273;BME280;63887;53.656;9.810;2023-02-01T00:39:17;101160.75;;;4.79;85.99
4273;BME280;63887;53.656;9.810;2023-02-01T00:41:44;101164.97;;;4.84;85.56
4273;BME280;63887;53.656;9.810;2023-02-01T00:44:10;101158.09;;;4.81;86.54
4273;BME280;63887;53.656;9.810;2023-02-01T00:46:38;101151.94;;;4.85;86.26
4273;BME280;63887;53.656;9.810;2023-02-01T00:49:04;101157.81;;;4.93;86.28
4273;BME280;63887;53.656;9.810;2023-02-01T00:51:32;101160.31;;;4.96;86.47
4273;BME280;63887;53.656;9.810;2023-02-01T00:53:58;101160.47;;;4.90;87.93
4273;BME280;63887;53.656;9.810;2023-02-01T00:56:25;101165.56;;;4.95;88.41
4273;BME280;63887;53.656;9.810;2023-02-01T00:58:52;101154.97;;;5.02;87.61
4273;BME280;63887;53.656;9.810;2023-02-01T01:01:20;101154.34;;;4.93;87.61
4273;BME280;63887;53.656;9.810;2023-02-01T01:03:48;101140.47;;;4.94;87.88
4273;BME280;63887;53.656;9.810;2023-02-01T01:06:18;101152.56;;;4.95;87.00
4273;BME280;63887;53.656;9.810;2023-02-01T01:08:46;101149.03;;;4.97;87.04
4273;BME280;63887;53.656;9.810;2023-02-01T01:11:14;101140.44;;;4.95;87.08
4273;BME280;63887;53.656;9.810;2023-02-01T01:13:40;101141.31;;;4.94;87.30
4273;BME280;63887;53.656;9.810;2023-02-01T01:16:08;101141.97;;;5.02;86.21
4273;BME280;63887;53.656;9.810;2023-02-01T01:18:35;101147.06;;;5.07;86.20
4273;BME280;63887;53.656;9.810;2023-02-01T01:21:03;101144.63;;;4.99;86.91
4273;BME280;63887;53.656;9.810;2023-02-01T01:23:30;101144.84;;;4.92;87.36
4273;BME280;63887;53.656;9.810;2023-02-01T01:25:56;101131.91;;;4.89;87.00
4273;BME280;63887;53.656;9.810;2023-02-01T01:28:22;101130.75;;;5.00;85.66
4273;BME280;63887;53.656;9.810;2023-02-01T01:30:49;101143.03;;;4.95;86.37
4273;BME280;63887;53.656;9.810;2023-02-01T01:33:15;101131.00;;;4.90;86.65
4273;BME280;63887;53.656;9.810;2023-02-01T01:35:42;101132.72;;;4.92;86.56
4273;BME280;63887;53.656;9.810;2023-02-01T01:38:10;101116.25;;;4.92;86.58
4273;BME280;63887;53.656;9.810;2023-02-01T01:40:36;101104.16;;;4.89;86.41
4273;BME280;63887;53.656;9.810;2023-02-01T01:43:05;101115.25;;;4.97;85.29
4273;BME280;63887;53.656;9.810;2023-02-01T01:45:35;101113.97;;;5.12;84.52
4273;BME280;63887;53.656;9.810;2023-02-01T01:48:03;101111.50;;;5.07;84.94
4273;BME280;63887;53.656;9.810;2023-02-01T01:50:32;101104.56;;;5.08;84.93
4273;BME280;63887;53.656;9.810;2023-02-01T01:53:00;101103.81;;;5.03;86.31
4273;BME280;63887;53.656;9.810;2023-02-01T01:55:29;101102.88;;;5.05;86.25
4273;BME280;63887;53.656;9.810;2023-02-01T01:57:58;101104.84;;;4.97;86.65
4273;BME280;63887;53.656;9.810;2023-02-01T02:00:26;101099.31;;;5.09;86.28
4273;BME280;63887;53.656;9.810;2023-02-01T02:02:54;101100.25;;;5.07;86.50
4273;BME280;63887;53.656;9.810;2023-02-01T02:05:23;101093.41;;;5.03;87.05
4273;BME280;63887;53.656;9.810;2023-02-01T02:07:50;101097.72;;;5.04;87.31
4273;BME280;63887;53.656;9.810;2023-02-01T02:10:17;101101.25;;;5.01;87.37
4273;BME280;63887;53.656;9.810;2023-02-01T02:12:45;101085.63;;;5.03;86.87
4273;BME280;63887;53.656;9.810;2023-02-01T02:15:14;101081.22;;;5.06;87.29
4273;BME280;63887;53.656;9.810;2023-02-01T02:17:43;101083.59;;;5.14;86.73
4273;BME280;63887;53.656;9.810;2023-02-01T02:20:30;101083.63;;;5.13;87.22
4273;BME280;63887;53.656;9.810;2023-02-01T02:23:19;101073.00;;;5.22;87.04
4273;BME280;63887;53.656;9.810;2023-02-01T02:25:56;101064.44;;;5.17;87.81
4273;BME280;63887;53.656;9.810;2023-02-01T02:28:37;101069.88;;;5.09;87.76
4273;BME280;63887;53.656;9.810;2023-02-01T02:31:25;101062.13;;;5.07;88.67
4273;BME280;63887;53.656;9.810;2023-02-01T02:34:07;101058.03;;;4.97;89.36
4273;BME280;63887;53.656;9.810;2023-02-01T02:36:40;101059.66;;;5.01;89.27
4273;BME280;63887;53.656;9.810;2023-02-01T02:39:12;101050.25;;;4.97;89.57
4273;BME280;63887;53.656;9.810;2023-02-01T02:41:48;101040.69;;;4.98;90.53
4273;BME280;63887;53.656;9.810;2023-02-01T02:44:39;101026.06;;;4.95;90.02
4273;BME280;63887;53.656;9.810;2023-02-01T02:47:30;101037.50;;;4.88;90.85
4273;BME280;63887;53.656;9.810;2023-02-01T02:50:04;101016.81;;;4.84;91.80
4273;BME280;63887;53.656;9.810;2023-02-01T02:52:51;101021.19;;;4.83;91.39
4273;BME280;63887;53.656;9.810;2023-02-01T02:55:35;101021.31;;;4.78;91.93
4273;BME280;63887;53.656;9.810;2023-02-01T02:58:04;101016.13;;;4.78;91.86
4273;BME280;63887;53.656;9.810;2023-02-01T03:00:48;101021.34;;;4.77;93.00
4273;BME280;63887;53.656;9.810;2023-02-01T03:03:35;101019.75;;;4.71;93.81
4273;BME280;63887;53.656;9.810;2023-02-01T03:06:22;101016.88;;;4.82;94.02
4273;BME280;63887;53.656;9.810;2023-02-01T03:08:48;101018.56;;;4.83;93.02
4273;BME280;63887;53.656;9.810;2023-02-01T03:11:19;101025.72;;;4.75;93.81
4273;BME280;63887;53.656;9.810;2023-02-01T03:13:49;101013.88;;;4.65;95.32
4273;BME280;63887;53.656;9.810;2023-02-01T03:16:17;101019.03;;;4.66;95.52
4273;BME280;63887;53.656;9.810;2023-02-01T03:18:49;101009.63;;;4.61;95.67
4273;BME280;63887;53.656;9.810;2023-02-01T03:21:18;101012.22;;;4.61;95.87
4273;BME280;63887;53.656;9.810;2023-02-01T03:23:48;100997.03;;;4.79;95.14
4273;BME280;63887;53.656;9.810;2023-02-01T03:26:17;100997.13;;;4.75;93.29
4273;BME280;63887;53.656;9.810;2023-02-01T03:28:47;100989.78;;;4.58;92.68
4273;BME280;63887;53.656;9.810;2023-02-01T03:31:14;100991.00;;;4.45;93.42
4273;BME280;63887;53.656;9.810;2023-02-01T03:33:41;100981.41;;;4.48;93.71
4273;BME280;63887;53.656;9.810;2023-02-01T03:36:15;100982.13;;;4.54;93.91
4273;BME280;63887;53.656;9.810;2023-02-01T03:38:44;100970.19;;;4.46;94.32
4273;BME280;63887;53.656;9.810;2023-02-01T03:41:18;100980.53;;;4.48;93.33
4273;BME280;63887;53.656;9.810;2023-02-01T03:43:49;100977.09;;;4.47;94.32
4273;BME280;63887;53.656;9.810;2023-02-01T03:46:19;100984.72;;;4.54;94.21
4273;BME280;63887;53.656;9.810;2023-02-01T03:48:46;100960.50;;;4.53;94.08
4273;BME280;63887;53.656;9.810;2023-02-01T03:51:14;100959.78;;;4.48;94.62
4273;BME280;63887;53.656;9.810;2023-02-01T03:53:41;100964.97;;;4.48;95.49
4273;BME280;63887;53.656;9.810;2023-02-01T03:56:11;100959.69;;;4.51;95.30
4273;BME280;63887;53.656;9.810;2023-02-01T03:58:39;100950.81;;;4.58;94.29
4273;BME280;63887;53.656;9.810;2023-02-01T04:01:05;100959.28;;;4.66;94.53
4273;BME280;63887;53.656;9.810;2023-02-01T04:03:36;100965.41;;;4.64;93.78
4273;BME280;63887;53.656;9.810;2023-02-01T04:06:02;100961.22;;;4.58;95.41
4273;BME280;63887;53.656;9.810;2023-02-01T04:08:29;100956.16;;;4.54;95.34
4273;BME280;63887;53.656;9.810;2023-02-01T04:10:55;100941.50;;;4.51;95.76
4273;BME280;63887;53.656;9.810;2023-02-01T04:13:21;100929.50;;;4.47;95.64
4273;BME280;63887;53.656;9.810;2023-02-01T04:15:49;100936.34;;;4.49;95.84
4273;BME280;63887;53.656;9.810;2023-02-01T04:18:15;100944.94;;;4.52;96.02
4273;BME280;63887;53.656;9.810;2023-02-01T04:20:42;100931.91;;;4.53;95.96
4273;BME280;63887;53.656;9.810;2023-02-01T04:23:08;100923.03;;;4.62;95.45
4273;BME280;63887;53.656;9.810;2023-02-01T04:25:35;100935.31;;;4.55;94.52
4273;BME280;63887;53.656;9.810;2023-02-01T04:28:01;100930.31;;;4.49;95.22
4273;BME280;63887;53.656;9.810;2023-02-01T04:30:28;100928.28;;;4.59;94.98
4273;BME280;63887;53.656;9.810;2023-02-01T04:32:55;100934.47;;;4.55;94.95
4273;BME280;63887;53.656;9.810;2023-02-01T04:35:22;100927.75;;;4.46;95.29
4273;BME280;63887;53.656;9.810;2023-02-01T04:37:48;100932.84;;;4.51;94.01
4273;BME280;63887;53.656;9.810;2023-02-01T04:40:14;100936.50;;;4.43;94.82
4273;BME280;63887;53.656;9.810;2023-02-01T04:42:41;100932.22;;;4.41;94.64
4273;BME280;63887;53.656;9.810;2023-02-01T04:45:07;100935.84;;;4.35;95.13
4273;BME280;63887;53.656;9.810;2023-02-01T04:47:34;100938.28;;;4.41;94.81
4273;BME280;63887;53.656;9.810;2023-02-01T04:50:02;100931.63;;;4.31;94.56
4273;BME280;63887;53.656;9.810;2023-02-01T04:52:28;100939.34;;;4.34;95.02
4273;BME280;63887;53.656;9.810;2023-02-01T04:54:55;100941.09;;;4.34;95.21
4273;BME280;63887;53.656;9.810;2023-02-01T04:57:22;100952.50;;;4.27;95.37
4273;BME280;63887;53.656;9.810;2023-02-01T04:59:49;100951.63;;;4.28;95.51
4273;BME280;63887;53.656;9.810;2023-02-01T05:02:15;100953.78;;;4.44;94.53
4273;BME280;63887;53.656;9.810;2023-02-01T05:04:41;100964.78;;;4.22;94.01
4273;BME280;63887;53.656;9.810;2023-02-01T05:07:09;100941.53;;;4.15;92.57
4273;BME280;63887;53.656;9.810;2023-02-01T05:09:35;100942.69;;;4.05;93.61
4273;BME280;63887;53.656;9.810;2023-02-01T05:12:02;100935.00;;;4.01;93.71
4273;BME280;63887;53.656;9.810;2023-02-01T05:14:46;100941.28;;;3.92;93.68
4273;BME280;63887;53.656;9.810;2023-02-01T05:17:13;100924.81;;;3.93;93.22
4273;BME280;63887;53.656;9.810;2023-02-01T05:19:39;100923.31;;;3.83;93.91
4273;BME280;63887;53.656;9.810;2023-02-01T05:22:05;100909.91;;;3.66;93.96
4273;BME280;63887;53.656;9.810;2023-02-01T05:24:33;100909.13;;;3.62;93.41
4273;BME280;63887;53.656;9.810;2023-02-01T05:27:00;100909.19;;;3.61;94.74
4273;BME280;63887;53.656;9.810;2023-02-01T05:29:26;100920.72;;;3.47;94.78
4273;BME280;63887;53.656;9.810;2023-02-01T05:31:52;100929.47;;;3.42;95.22
4273;BME280;63887;53.656;9.810;2023-02-01T05:34:19;100931.28;;;3.38;95.12
4273;BME280;63887;53.656;9.810;2023-02-01T05:36:45;100931.28;;;3.38;95.33
4273;BME280;63887;53.656;9.810;2023-02-01T05:39:11;100950.31;;;3.37;95.25
4273;BME280;63887;53.656;9.810;2023-02-01T05:41:39;100947.47;;;3.49;95.05
4273;BME280;63887;53.656;9.810;2023-02-01T05:44:06;100949.50;;;3.35;95.05
4273;BME280;63887;53.656;9.810;2023-02-01T05:46:33;100959.81;;;3.38;95.21
4273;BME280;63887;53.656;9.810;2023-02-01T05:48:59;100944.31;;;3.35;95.17
4273;BME280;63887;53.656;9.810;2023-02-01T05:51:25;100945.25;;;3.33;94.57
4273;BME280;63887;53.656;9.810;2023-02-01T05:53:52;100940.19;;;3.28;95.26
4273;BME280;63887;53.656;9.810;2023-02-01T05:56:18;100941.25;;;3.18;94.82
4273;BME280;63887;53.656;9.810;2023-02-01T05:58:46;100939.63;;;3.12;94.96
4273;BME280;63887;53.656;9.810;2023-02-01T06:01:12;100933.56;;;3.15;94.88
4273;BME280;63887;53.656;9.810;2023-02-01T06:03:38;100932.94;;;3.02;95.50
4273;BME280;63887;53.656;9.810;2023-02-01T06:06:05;100923.38;;;3.06;95.61
4273;BME280;63887;53.656;9.810;2023-02-01T06:08:31;100913.94;;;3.03;95.65
4273;BME280;63887;53.656;9.810;2023-02-01T06:10:58;100917.38;;;3.04;95.37
4273;BME280;63887;53.656;9.810;2023-02-01T06:13:24;100922.69;;;2.96;96.29
4273;BME280;63887;53.656;9.810;2023-02-01T06:15:52;100913.94;;;3.03;96.39
4273;BME280;63887;53.656;9.810;2023-02-01T06:18:20;100913.22;;;2.95;96.11
4273;BME280;63887;53.656;9.810;2023-02-01T06:20:51;100910.63;;;2.95;96.79
4273;BME280;63887;53.656;9.810;2023-02-01T06:23:17;100914.78;;;3.04;96.57
4273;BME280;63887;53.656;9.810;2023-02-01T06:25:44;100910.47;;;3.03;96.67
4273;BME280;63887;53.656;9.810;2023-02-01T06:28:10;100906.94;;;3.07;96.57
4273;BME280;63887;53.656;9.810;2023-02-01T06:30:37;100923.25;;;3.10;96.88
4273;BME280;63887;53.656;9.810;2023-02-01T06:33:07;100918.81;;;3.17;97.26
4273;BME280;63887;53.656;9.810;2023-02-01T06:35:33;100918.84;;;3.15;97.39
4273;BME280;63887;53.656;9.810;2023-02-01T06:38:00;100921.22;;;3.24;97.52
4273;BME280;63887;53.656;9.810;2023-02-01T06:40:26;100907.03;;;3.41;97.09
4273;BME280;63887;53.656;9.810;2023-02-01T06:42:52;100908.69;;;3.45;97.26
4273;BME280;63887;53.656;9.810;2023-02-01T06:45:19;100910.34;;;3.47;97.52
4273;BME280;63887;53.656;9.810;2023-02-01T06:47:45;100901.75;;;3.45;97.23
4273;BME280;63887;53.656;9.810;2023-02-01T06:50:12;100904.16;;;3.53;97.15
4273;BME280;63887;53.656;9.810;2023-02-01T06:52:39;100906.66;;;3.56;96.71
4273;BME280;63887;53.656;9.810;2023-02-01T06:55:06;100914.38;;;3.61;97.32
4273;BME280;63887;53.656;9.810;2023-02-01T06:57:32;100919.47;;;3.64;97.09
4273;BME280;63887;53.656;9.810;2023-02-01T07:00:00;100914.22;;;3.67;97.64
4273;BME280;63887;53.656;9.810;2023-02-01T07:02:27;100934.84;;;3.71;97.79
4273;BME280;63887;53.656;9.810;2023-02-01T07:04:54;100938.13;;;3.79;97.86
4273;BME280;63887;53.656;9.810;2023-02-01T07:07:22;100937.28;;;3.79;97.76
4273;BME280;63887;53.656;9.810;2023-02-01T07:09:48;100949.19;;;3.86;98.07
4273;BME280;63887;53.656;9.810;2023-02-01T07:12:15;100938.84;;;3.84;97.81
4273;BME280;63887;53.656;9.810;2023-02-01T07:14:41;100938.00;;;3.84;98.08
4273;BME280;63887;53.656;9.810;2023-02-01T07:17:07;100931.13;;;3.83;98.03
4273;BME280;63887;53.656;9.810;2023-02-01T07:19:34;100937.78;;;3.93;98.12
4273;BME280;63887;53.656;9.810;2023-02-01T07:22:00;100928.34;;;3.91;97.64
4273;BME280;63887;53.656;9.810;2023-02-01T07:24:28;100924.78;;;3.95;98.28
4273;BME280;63887;53.656;9.810;2023-02-01T07:26:56;100929.53;;;4.11;97.08
4273;BME280;63887;53.656;9.810;2023-02-01T07:29:22;100923.09;;;4.26;94.77
4273;BME280;63887;53.656;9.810;2023-02-01T07:31:49;100934.19;;;4.33;94.53
4273;BME280;63887;53.656;9.810;2023-02-01T07:34:15;100929.00;;;4.33;95.19
4273;BME280;63887;53.656;9.810;2023-02-01T07:36:41;100927.53;;;4.23;95.60
4273;BME280;63887;53.656;9.810;2023-02-01T07:39:08;100930.09;;;4.24;96.11
4273;BME280;63887;53.656;9.810;2023-02-01T07:41:35;100934.31;;;4.28;96.91
4273;BME280;63887;53.656;9.810;2023-02-01T07:44:02;100929.84;;;4.33;96.75
4273;BME280;63887;53.656;9.810;2023-02-01T07:46:28;100924.34;;;4.44;96.60
4273;BME280;63887;53.656;9.810;2023-02-01T07:48:55;100927.75;;;4.47;96.48
4273;BME280;63887;53.656;9.810;2023-02-01T07:51:21;100937.16;;;4.52;96.67
4273;BME280;63887;53.656;9.810;2023-02-01T07:53:48;100935.53;;;4.47;96.46
4273;BME280;63887;53.656;9.810;2023-02-01T07:56:14;100931.06;;;4.53;96.65
4273;BME280;63887;53.656;9.810;2023-02-01T07:58:46;100928.47;;;4.53;96.01
4273;BME280;63887;53.656;9.810;2023-02-01T08:01:13;100934.38;;;4.58;95.31
4273;BME280;63887;53.656;9.810;2023-02-01T08:03:45;100939.56;;;4.58;96.16
4273;BME280;63887;53.656;9.810;2023-02-01T08:06:11;100944.66;;;4.62;94.68
4273;BME280;63887;53.656;9.810;2023-02-01T08:08:37;100955.97;;;4.61;95.06
4273;BME280;63887;53.656;9.810;2023-02-01T08:11:04;100949.81;;;4.64;94.82
4273;BME280;63887;53.656;9.810;2023-02-01T08:13:32;100963.53;;;4.69;94.06
4273;BME280;63887;53.656;9.810;2023-02-01T08:16:00;100971.13;;;4.75;93.59
4273;BME280;63887;53.656;9.810;2023-02-01T08:18:27;100969.47;;;4.72;94.38
4273;BME280;63887;53.656;9.810;2023-02-01T08:20:53;100973.38;;;4.89;93.90
4273;BME280;63887;53.656;9.810;2023-02-01T08:23:20;100978.50;;;4.92;92.87
4273;BME280;63887;53.656;9.810;2023-02-01T08:25:47;100975.09;;;5.19;92.99
4273;BME280;63887;53.656;9.810;2023-02-01T08:28:13;100970.69;;;5.23;92.72
4273;BME280;63887;53.656;9.810;2023-02-01T08:30:39;100972.94;;;5.33;90.03
4273;BME280;63887;53.656;9.810;2023-02-01T08:33:08;100965.38;;;5.26;88.90
4273;BME280;63887;53.656;9.810;2023-02-01T08:35:35;100954.63;;;5.08;88.84
4273;BME280;63887;53.656;9.810;2023-02-01T08:38:01;100953.00;;;5.04;88.88
4273;BME280;63887;53.656;9.810;2023-02-01T08:40:28;100961.81;;;4.99;88.51
4273;BME280;63887;53.656;9.810;2023-02-01T08:42:54;100951.00;;;4.83;88.30
4273;BME280;63887;53.656;9.810;2023-02-01T08:45:21;100952.66;;;4.86;87.17
4273;BME280;63887;53.656;9.810;2023-02-01T08:47:48;100947.84;;;4.72;87.86
4273;BME280;63887;53.656;9.810;2023-02-01T08:50:17;100949.97;;;4.58;88.98
4273;BME280;63887;53.656;9.810;2023-02-01T08:52:43;100946.75;;;4.49;90.18
4273;BME280;63887;53.656;9.810;2023-02-01T08:55:10;100951.13;;;4.47;91.42
4273;BME280;63887;53.656;9.810;2023-02-01T08:57:36;100955.16;;;4.58;90.61
4273;BME280;63887;53.656;9.810;2023-02-01T09:00:04;100948.69;;;4.72;90.87
4273;BME280;63887;53.656;9.810;2023-02-01T09:02:30;100960.31;;;4.90;90.50
4273;BME280;63887;53.656;9.810;2023-02-01T09:04:57;100946.97;;;5.02;90.68
4273;BME280;63887;53.656;9.810;2023-02-01T09:07:24;100931.09;;;5.13;90.89
4273;BME280;63887;53.656;9.810;2023-02-01T09:09:51;100931.78;;;5.18;89.95
4273;BME280;63887;53.656;9.810;2023-02-01T09:12:19;100929.72;;;5.29;89.93
4273;BME280;63887;53.656;9.810;2023-02-01T09:14:46;100927.81;;;5.36;90.26
4273;BME280;63887;53.656;9.810;2023-02-01T09:17:12;100929.94;;;5.51;88.54
4273;BME280;63887;53.656;9.810;2023-02-01T09:19:38;100936.31;;;5.69;88.00
4273;BME280;63887;53.656;9.810;2023-02-01T09:22:05;100939.88;;;5.66;88.23
4273;BME280;63887;53.656;9.810;2023-02-01T09:24:32;100941.56;;;5.67;88.02
4273;BME280;63887;53.656;9.810;2023-02-01T09:26:59;100945.75;;;5.72;88.72
4273;BME280;63887;53.656;9.810;2023-02-01T09:29:25;100931.69;;;5.77;87.21
4273;BME280;63887;53.656;9.810;2023-02-01T09:31:52;100940.34;;;5.78;87.72
4273;BME280;63887;53.656;9.810;2023-02-01T09:34:18;100925.63;;;5.77;88.14
4273;BME280;63887;53.656;9.810;2023-02-01T09:36:44;100933.41;;;5.78;87.10
4273;BME280;63887;53.656;9.810;2023-02-01T09:39:11;100936.84;;;5.79;87.04
4273;BME280;63887;53.656;9.810;2023-02-01T09:41:41;100957.63;;;5.80;86.92
4273;BME280;63887;53.656;9.810;2023-02-01T09:44:12;100941.88;;;5.85;86.45
4273;BME280;63887;53.656;9.810;2023-02-01T09:46:43;100940.63;;;5.98;86.36
4273;BME280;63887;53.656;9.810;2023-02-01T09:49:11;100941.41;;;6.00;85.98
4273;BME280;63887;53.656;9.810;2023-02-01T09:51:39;100942.41;;;5.96;86.68
4273;BME280;63887;53.656;9.810;2023-02-01T09:54:11;100937.75;;;6.06;86.11
4273;BME280;63887;53.656;9.810;2023-02-01T09:56:41;100928.78;;;6.14;86.29
4273;BME280;63887;53.656;9.810;2023-02-01T09:59:10;100927.66;;;6.21;85.80
4273;BME280;63887;53.656;9.810;2023-02-01T10:01:41;100939.78;;;6.22;85.84
4273;BME280;63887;53.656;9.810;2023-02-01T10:04:09;100920.22;;;6.11;86.50
4273;BME280;63887;53.656;9.810;2023-02-01T10:06:40;100924.16;;;6.22;86.63
4273;BME280;63887;53.656;9.810;2023-02-01T10:09:16;100924.09;;;6.24;86.56
4273;BME280;63887;53.656;9.810;2023-02-01T10:11:54;100934.63;;;6.21;85.63
4273;BME280;63887;53.656;9.810;2023-02-01T10:14:33;100932.56;;;6.31;85.69
4273;BME280;63887;53.656;9.810;2023-02-01T10:17:04;100943.22;;;6.23;86.19
4273;BME280;63887;53.656;9.810;2023-02-01T10:19:37;100937.44;;;6.15;86.63
4273;BME280;63887;53.656;9.810;2023-02-01T10:22:06;100934.09;;;6.11;87.40
4273;BME280;63887;53.656;9.810;2023-02-01T10:24:36;100933.78;;;6.20;86.90
4273;BME280;63887;53.656;9.810;2023-02-01T10:27:08;100922.72;;;6.14;86.59
4273;BME280;63887;53.656;9.810;2023-02-01T10:29:38;100927.94;;;6.14;87.76
4273;BME280;63887;53.656;9.810;2023-02-01T10:32:09;100922.16;;;6.04;88.30
4273;BME280;63887;53.656;9.810;2023-02-01T10:34:37;100928.34;;;6.02;88.69
4273;BME280;63887;53.656;9.810;2023-02-01T10:37:08;100914.81;;;5.90;89.18
4273;BME280;63887;53.656;9.810;2023-02-01T10:39:38;100911.25;;;5.65;89.94
4273;BME280;63887;53.656;9.810;2023-02-01T10:42:05;100911.47;;;5.59;91.62
4273;BME280;63887;53.656;9.810;2023-02-01T10:44:33;100895.16;;;5.54;92.41
4273;BME280;63887;53.656;9.810;2023-02-01T10:47:02;100887.72;;;5.69;91.44
4273;BME280;63887;53.656;9.810;2023-02-01T10:49:29;100887.00;;;5.64;91.28
4273;BME280;63887;53.656;9.810;2023-02-01T10:52:00;100875.88;;;5.59;91.51
4273;BME280;63887;53.656;9.810;2023-02-01T10:54:32;100863.78;;;5.58;91.74
4273;BME280;63887;53.656;9.810;2023-02-01T10:56:59;100883.66;;;5.61;90.81
4273;BME280;63887;53.656;9.810;2023-02-01T10:59:27;100875.38;;;5.48;90.44
4273;BME280;63887;53.656;9.810;2023-02-01T11:01:58;100833.44;;;5.03;89.89
4273;BME280;63887;53.656;9.810;2023-02-01T11:04:25;100862.66;;;4.83;91.74
4273;BME280;63887;53.656;9.810;2023-02-01T11:06:52;100870.13;;;4.64;92.51
4273;BME280;63887;53.656;9.810;2023-02-01T11:09:20;100865.88;;;4.62;93.54
4273;BME280;63887;53.656;9.810;2023-02-01T11:11:52;100859.94;;;4.57;94.00
4273;BME280;63887;53.656;9.810;2023-02-01T11:14:20;100856.81;;;4.75;93.83
4273;BME280;63887;53.656;9.810;2023-02-01T11:16:47;100855.00;;;4.78;94.06
4273;BME280;63887;53.656;9.810;2023-02-01T11:19:16;100833.44;;;5.03;93.26
4273;BME280;63887;53.656;9.810;2023-02-01T11:21:42;100838.47;;;5.09;93.04
4273;BME280;63887;53.656;9.810;2023-02-01T11:24:12;100839.06;;;5.17;93.40
4273;BME280;63887;53.656;9.810;2023-02-01T11:26:45;100826.66;;;5.27;94.13
4273;BME280;63887;53.656;9.810;2023-02-01T11:29:12;100832.69;;;5.27;93.67
4273;BME280;63887;53.656;9.810;2023-02-01T11:31:39;100827.84;;;5.43;91.90
4273;BME280;63887;53.656;9.810;2023-02-01T11:34:08;100816.56;;;5.44;91.66
4273;BME280;63887;53.656;9.810;2023-02-01T11:36:39;100819.22;;;5.43;93.00
4273;BME280;63887;53.656;9.810;2023-02-01T11:39:24;100809.44;;;5.49;92.56
4273;BME280;63887;53.656;9.810;2023-02-01T11:41:55;100796.25;;;5.55;92.29
4273;BME280;63887;53.656;9.810;2023-02-01T11:44:26;100797.94;;;5.56;91.72
4273;BME280;63887;53.656;9.810;2023-02-01T11:46:55;100803.84;;;5.61;91.67
4273;BME280;63887;53.656;9.810;2023-02-01T11:49:22;100806.81;;;5.51;91.56
4273;BME280;63887;53.656;9.810;2023-02-01T11:51:54;100789.34;;;5.54;92.79
4273;BME280;63887;53.656;9.810;2023-02-01T11:54:33;100779.78;;;5.55;92.21
4273;BME280;63887;53.656;9.810;2023-02-01T11:57:06;100781.16;;;5.65;90.65
4273;BME280;63887;53.656;9.810;2023-02-01T11:59:45;100783.00;;;5.61;91.30
4273;BME280;63887;53.656;9.810;2023-02-01T12:05:03;100778.94;;;5.54;91.39
4273;BME280;63887;53.656;9.810;2023-02-01T12:07:38;100792.34;;;5.42;92.30
4273;BME280;63887;53.656;9.810;2023-02-01T12:10:12;100796.44;;;5.49;92.54
4273;BME280;63887;53.656;9.810;2023-02-01T12:12:46;100788.94;;;5.40;92.39
4273;BME280;63887;53.656;9.810;2023-02-01T12:15:18;100793.19;;;5.43;93.26
4273;BME280;63887;53.656;9.810;2023-02-01T12:18:04;100787.44;;;5.33;92.77
4273;BME280;63887;53.656;9.810;2023-02-01T12:20:41;100793.63;;;5.29;92.08
4273;BME280;63887;53.656;9.810;2023-02-01T12:23:18;100802.44;;;5.25;93.02
4273;BME280;63887;53.656;9.810;2023-02-01T12:25:55;100831.63;;;5.06;93.83
4273;BME280;63887;53.656;9.810;2023-02-01T12:28:32;100831.53;;;5.09;91.74
4273;BME280;63887;53.656;9.810;2023-02-01T12:31:05;100822.78;;;4.84;91.84
4273;BME280;63887;53.656;9.810;2023-02-01T12:33:38;100804.19;;;4.68;92.60
4273;BME280;63887;53.656;9.810;2023-02-01T12:36:11;100816.53;;;4.60;91.67
4273;BME280;63887;53.656;9.810;2023-02-01T12:38:48;100810.72;;;4.52;91.63
4273;BME280;63887;53.656;9.810;2023-02-01T12:41:26;100808.94;;;4.54;91.79
4273;BME280;63887;53.656;9.810;2023-02-01T12:43:56;100811.44;;;4.57;91.81
4273;BME280;63887;53.656;9.810;2023-02-01T12:46:25;100800.50;;;4.46;92.85
4273;BME280;63887;53.656;9.810;2023-02-01T12:48:55;100799.88;;;4.38;90.94
4273;BME280;63887;53.656;9.810;2023-02-01T12:51:23;100810.97;;;4.43;92.08
4273;BME280;63887;53.656;9.810;2023-02-01T12:53:53;100800.59;;;4.43;91.99
4273;BME280;63887;53.656;9.810;2023-02-01T12:56:21;100802.19;;;4.48;92.07
4273;BME280;63887;53.656;9.810;2023-02-01T12:58:49;100797.09;;;4.44;92.31
4273;BME280;63887;53.656;9.810;2023-02-01T13:01:19;100786.59;;;4.48;91.90
4273;BME280;63887;53.656;9.810;2023-02-01T13:03:50;100773.06;;;4.37;92.76
4273;BME280;63887;53.656;9.810;2023-02-01T13:06:19;100776.38;;;4.42;91.77
4273;BME280;63887;53.656;9.810;2023-02-01T13:08:47;100758.53;;;4.61;91.51
4273;BME280;63887;53.656;9.810;2023-02-01T13:11:17;100762.22;;;4.53;91.14
4273;BME280;63887;53.656;9.810;2023-02-01T13:13:48;100768.09;;;4.59;91.29
4273;BME280;63887;53.656;9.810;2023-02-01T13:16:19;100760.44;;;4.83;91.08
4273;BME280;63887;53.656;9.810;2023-02-01T13:18:52;100775.50;;;4.99;89.65
4273;BME280;63887;53.656;9.810;2023-02-01T13:21:21;100763.56;;;4.94;89.12